createdAt,value
2023-03-11T00:00:28.450Z,1.30
2023-03-11T00:03:00.472Z,1.30
2023-03-11T00:05:33.571Z,1.20
2023-03-11T00:08:01.298Z,1.30
2023-03-11T00:10:32.498Z,1.30
2023-03-11T00:13:00.095Z,1.30
2023-03-11T00:15:27.546Z,1.30
2023-03-11T00:17:54.830Z,1.30
2023-03-11T00:20:30.806Z,1.30
2023-03-11T00:22:58.434Z,1.30
2023-03-11T00:25:28.856Z,1.30
2023-03-11T00:27:55.953Z,1.30
2023-03-11T00:30:23.587Z,1.30
2023-03-11T00:32:52.156Z,1.30
2023-03-11T00:35:23.285Z,1.30
2023-03-11T00:37:57.791Z,1.30
2023-03-11T00:40:27.292Z,1.30
2023-03-11T00:42:54.247Z,1.30
2023-03-11T00:45:21.052Z,1.30
2023-03-11T00:47:47.991Z,1.30
2023-03-11T00:50:21.344Z,1.30
2023-03-11T00:52:49.484Z,1.30
2023-03-11T00:55:19.438Z,1.30
2023-03-11T00:57:46.582Z,1.30
2023-03-11T01:00:18.966Z,1.30
2023-03-11T01:02:45.971Z,1.30
2023-03-11T01:05:13.514Z,1.30
2023-03-11T01:07:40.731Z,1.20
2023-03-11T01:10:09.275Z,1.30
2023-03-11T01:12:36.328Z,1.30
2023-03-11T01:15:04.033Z,1.30
2023-03-11T01:17:30.838Z,1.30
2023-03-11T01:19:57.653Z,1.30
2023-03-11T01:22:24.455Z,1.30
2023-03-11T01:24:51.250Z,1.30
2023-03-11T01:27:18.041Z,1.30
2023-03-11T01:29:44.960Z,1.20
2023-03-11T01:32:11.897Z,1.20
2023-03-11T01:34:38.799Z,1.20
2023-03-11T01:37:05.607Z,1.30
2023-03-11T01:39:32.393Z,1.20
2023-03-11T01:41:59.176Z,1.20
2023-03-11T01:44:26.066Z,1.30
2023-03-11T01:46:53.145Z,1.30
2023-03-11T01:49:23.811Z,1.30
2023-03-11T01:51:54.218Z,1.30
2023-03-11T01:54:25.740Z,1.30
2023-03-11T01:56:53.022Z,1.30
2023-03-11T01:59:24.016Z,1.30
2023-03-11T02:02:06.691Z,1.30
2023-03-11T02:04:35.759Z,1.30
2023-03-11T02:07:04.351Z,1.30
2023-03-11T02:09:31.209Z,1.30
2023-03-11T02:11:58.506Z,1.30
2023-03-11T02:14:27.508Z,1.30
2023-03-11T02:16:55.194Z,1.30
2023-03-11T02:19:23.186Z,1.30
2023-03-11T02:21:51.441Z,1.20
2023-03-11T02:24:48.015Z,1.30
2023-03-11T02:27:18.237Z,1.20
2023-03-11T02:29:49.711Z,1.30
2023-03-11T02:32:18.221Z,1.20
2023-03-11T02:34:45.401Z,1.20
2023-03-11T02:37:16.215Z,1.20
2023-03-11T02:39:52.245Z,1.30
2023-03-11T02:42:29.142Z,1.20
2023-03-11T02:45:01.404Z,1.20
2023-03-11T02:47:29.822Z,1.20
2023-03-11T02:49:57.190Z,1.20
2023-03-11T02:52:28.801Z,1.20
2023-03-11T02:54:55.893Z,1.20
2023-03-11T02:57:22.670Z,1.20
2023-03-11T02:59:49.450Z,1.10
2023-03-11T03:02:17.037Z,1.10
2023-03-11T03:04:44.389Z,1.10
2023-03-11T03:07:11.687Z,1.10
2023-03-11T03:09:38.535Z,1.10
2023-03-11T03:12:05.745Z,1.10
2023-03-11T03:14:33.570Z,1.10
2023-03-11T03:17:00.693Z,1.00
2023-03-11T03:19:27.542Z,1.10
2023-03-11T03:21:55.027Z,1.10
2023-03-11T03:24:23.106Z,1.00
2023-03-11T03:26:49.900Z,1.10
2023-03-11T03:29:16.850Z,1.10
2023-03-11T03:31:44.006Z,1.10
2023-03-11T03:34:11.065Z,1.10
2023-03-11T03:36:37.884Z,1.10
2023-03-11T03:39:05.513Z,1.10
2023-03-11T03:41:35.946Z,1.10
2023-03-11T03:44:03.459Z,1.10
2023-03-11T03:46:31.284Z,1.10
2023-03-11T03:48:59.596Z,1.20
2023-03-11T03:51:27.902Z,1.20
2023-03-11T03:54:08.990Z,1.20
2023-03-11T03:56:36.050Z,1.20
2023-03-11T03:59:03.448Z,1.20
2023-03-11T04:01:37.017Z,1.20
2023-03-11T04:04:04.120Z,1.20
2023-03-11T04:06:30.985Z,1.20
2023-03-11T04:09:02.299Z,1.20
2023-03-11T04:11:32.763Z,1.20
2023-03-11T04:14:02.413Z,1.10
2023-03-11T04:16:30.529Z,1.10
2023-03-11T04:19:02.037Z,1.00
2023-03-11T04:21:28.944Z,1.00
2023-03-11T04:23:56.620Z,1.10
2023-03-11T04:26:28.858Z,1.10
2023-03-11T04:28:55.882Z,1.10
2023-03-11T04:31:25.197Z,1.10
2023-03-11T04:33:52.052Z,1.00
2023-03-11T04:36:18.981Z,1.00
2023-03-11T04:38:46.633Z,1.00
2023-03-11T04:41:14.264Z,1.00
2023-03-11T04:43:43.700Z,0.90
2023-03-11T04:46:10.579Z,1.00
2023-03-11T04:48:38.525Z,1.00
2023-03-11T04:51:07.344Z,1.00
2023-03-11T04:53:34.597Z,1.00
2023-03-11T04:56:01.881Z,0.90
2023-03-11T04:58:29.760Z,0.90
2023-03-11T05:00:56.585Z,0.90
2023-03-11T05:03:24.160Z,0.90
2023-03-11T05:05:53.021Z,0.90
2023-03-11T05:08:21.006Z,0.90
2023-03-11T05:10:47.808Z,0.90
2023-03-11T05:13:14.718Z,0.90
2023-03-11T05:15:42.527Z,0.90
2023-03-11T05:18:09.264Z,0.80
2023-03-11T05:20:38.392Z,0.80
2023-03-11T05:23:05.926Z,0.90
2023-03-11T05:25:35.501Z,0.90
2023-03-11T05:28:03.951Z,0.80
2023-03-11T05:30:32.581Z,0.80
2023-03-11T05:32:59.779Z,0.80
2023-03-11T05:35:27.029Z,0.80
2023-03-11T05:37:54.786Z,0.70
2023-03-11T05:40:22.965Z,0.70
2023-03-11T05:42:50.192Z,0.70
2023-03-11T05:45:17.111Z,0.70
2023-03-11T05:47:46.617Z,0.70
2023-03-11T05:50:15.614Z,0.70
2023-03-11T05:52:45.088Z,0.70
2023-03-11T05:55:12.640Z,0.60
2023-03-11T05:57:41.739Z,0.70
2023-03-11T06:00:12.065Z,0.70
2023-03-11T06:02:45.371Z,0.70
2023-03-11T06:05:15.587Z,0.70
2023-03-11T06:07:44.283Z,0.70
2023-03-11T06:10:11.953Z,0.70
2023-03-11T06:12:39.904Z,0.70
2023-03-11T06:15:21.946Z,0.70
2023-03-11T06:17:49.060Z,0.80
2023-03-11T06:20:15.931Z,0.70
2023-03-11T06:22:43.335Z,0.70
2023-03-11T06:25:10.753Z,0.70
2023-03-11T06:27:39.504Z,0.70
2023-03-11T06:30:07.939Z,0.70
2023-03-11T06:32:44.110Z,0.70
2023-03-11T06:35:11.727Z,0.70
2023-03-11T06:37:39.495Z,0.70
2023-03-11T06:40:08.637Z,0.60
2023-03-11T06:42:36.418Z,0.60
2023-03-11T06:45:04.563Z,0.60
2023-03-11T06:47:31.543Z,0.70
2023-03-11T06:49:59.627Z,0.70
2023-03-11T06:52:27.045Z,0.70
2023-03-11T06:54:55.598Z,0.80
2023-03-11T06:57:22.670Z,0.80
2023-03-11T06:59:51.735Z,0.80
2023-03-11T07:02:19.103Z,0.80
2023-03-11T07:04:49.509Z,0.80
2023-03-11T07:07:18.341Z,0.90
2023-03-11T07:09:45.156Z,0.90
2023-03-11T07:12:14.828Z,1.00
2023-03-11T07:14:41.772Z,1.10
2023-03-11T07:17:08.584Z,1.10
2023-03-11T07:19:41.780Z,1.10
2023-03-11T07:22:08.529Z,1.10
2023-03-11T07:24:35.322Z,1.10
2023-03-11T07:27:02.106Z,1.20
2023-03-11T07:29:28.879Z,1.10
2023-03-11T07:31:55.681Z,1.20
2023-03-11T07:34:22.565Z,1.20
2023-03-11T07:36:49.386Z,1.30
2023-03-11T07:39:18.857Z,1.40
2023-03-11T07:41:46.315Z,1.50
2023-03-11T07:44:15.816Z,1.60
2023-03-11T07:46:42.978Z,1.60
2023-03-11T07:49:10.016Z,1.60
2023-03-11T07:51:38.610Z,1.50
2023-03-11T07:54:05.651Z,1.50
2023-03-11T07:56:34.627Z,1.60
2023-03-11T07:59:04.032Z,1.60
2023-03-11T08:01:41.049Z,1.60
2023-03-11T08:04:14.216Z,1.70
2023-03-11T08:06:42.835Z,1.70
2023-03-11T08:09:09.806Z,1.80
2023-03-11T08:11:37.229Z,1.80
2023-03-11T08:14:05.013Z,1.90
2023-03-11T08:16:31.891Z,1.90
2023-03-11T08:18:58.673Z,2.00
2023-03-11T08:21:29.737Z,2.00
2023-03-11T08:24:01.298Z,2.10
2023-03-11T08:26:28.906Z,2.10
2023-03-11T08:28:56.482Z,2.10
2023-03-11T08:31:29.388Z,2.20
2023-03-11T08:34:00.760Z,2.20
2023-03-11T08:36:28.084Z,2.30
2023-03-11T08:38:55.084Z,2.30
2023-03-11T08:41:22.027Z,2.40
2023-03-11T08:43:48.782Z,2.50
2023-03-11T08:46:23.049Z,2.60
2023-03-11T08:48:49.999Z,2.70
2023-03-11T08:51:18.273Z,2.90
2023-03-11T08:53:45.065Z,3.00
2023-03-11T08:56:11.949Z,3.10
2023-03-11T08:58:38.802Z,3.20
2023-03-11T09:01:07.169Z,3.40
2023-03-11T09:03:35.517Z,3.50
2023-03-11T09:06:06.227Z,3.70
2023-03-11T09:08:33.450Z,3.70
2023-03-11T09:11:00.442Z,3.50
2023-03-11T09:13:27.854Z,3.40
2023-03-11T09:15:54.821Z,3.50
2023-03-11T09:18:21.771Z,3.60
2023-03-11T09:20:48.609Z,3.80
2023-03-11T09:23:16.958Z,3.80
2023-03-11T09:25:44.375Z,3.80
2023-03-11T09:28:11.317Z,3.80
2023-03-11T09:30:38.216Z,3.90
2023-03-11T09:33:05.059Z,4.00
2023-03-11T09:35:31.896Z,4.00
2023-03-11T09:37:58.784Z,3.90
2023-03-11T09:40:28.440Z,3.90
2023-03-11T09:43:11.499Z,3.80
2023-03-11T09:45:44.684Z,4.00
2023-03-11T09:48:30.053Z,4.10
2023-03-11T09:51:09.481Z,4.00
2023-03-11T09:53:47.061Z,4.10
2023-03-11T09:56:18.824Z,4.30
2023-03-11T09:58:50.637Z,4.50
2023-03-11T10:01:29.026Z,4.70
2023-03-11T10:04:02.040Z,4.70
2023-03-11T10:06:32.071Z,4.70
2023-03-11T10:09:30.788Z,4.60
2023-03-11T10:12:00.312Z,4.60
2023-03-11T10:14:47.474Z,4.50
2023-03-11T10:17:32.829Z,4.60
2023-03-11T10:20:22.248Z,4.60
2023-03-11T10:23:07.981Z,4.60
2023-03-11T10:25:50.011Z,4.50
2023-03-11T10:28:19.159Z,4.50
2023-03-11T10:31:00.421Z,4.80
2023-03-11T10:33:42.413Z,4.90
2023-03-11T10:36:17.272Z,4.90
2023-03-11T10:38:49.471Z,4.70
2023-03-11T10:41:39.326Z,4.60
2023-03-11T10:44:17.281Z,4.80
2023-03-11T10:46:45.077Z,5.20
2023-03-11T10:49:16.700Z,5.60
2023-03-11T10:51:49.425Z,6.00
2023-03-11T10:54:31.651Z,6.10
2023-03-11T10:57:00.899Z,5.90
2023-03-11T10:59:46.238Z,5.70
2023-03-11T11:02:31.684Z,5.40
2023-03-11T11:05:22.782Z,5.10
2023-03-11T11:07:53.058Z,4.80
2023-03-11T11:10:28.076Z,4.60
2023-03-11T11:13:04.036Z,4.60
2023-03-11T11:15:51.070Z,4.60
2023-03-11T11:18:48.827Z,4.70
2023-03-11T11:21:39.386Z,5.30
2023-03-11T11:24:24.299Z,5.80
2023-03-11T11:27:20.178Z,6.20
2023-03-11T11:30:02.017Z,6.50
2023-03-11T11:32:29.166Z,6.60
2023-03-11T11:35:11.415Z,6.60
2023-03-11T11:37:42.454Z,6.70
2023-03-11T11:40:15.717Z,6.70
2023-03-11T11:43:05.481Z,6.90
2023-03-11T11:45:37.750Z,7.10
2023-03-11T11:48:17.454Z,7.20
2023-03-11T11:50:49.009Z,7.20
2023-03-11T11:53:34.870Z,7.20
2023-03-11T11:56:02.185Z,7.20
2023-03-11T11:58:30.523Z,7.10
2023-03-11T12:01:16.477Z,7.00
2023-03-11T12:03:48.708Z,6.80
2023-03-11T12:06:34.372Z,6.80
2023-03-11T12:09:29.712Z,6.70
2023-03-11T12:12:20.407Z,6.70
2023-03-11T12:15:07.294Z,6.70
2023-03-11T12:17:37.980Z,6.70
2023-03-11T12:20:15.535Z,6.70
2023-03-11T12:23:01.462Z,6.60
2023-03-11T12:25:40.215Z,6.50
2023-03-11T12:28:35.753Z,6.40
2023-03-11T12:31:07.648Z,6.50
2023-03-11T12:33:43.939Z,6.60
2023-03-11T12:36:24.647Z,6.80
2023-03-11T12:38:53.407Z,7.10
2023-03-11T12:41:38.858Z,7.40
2023-03-11T12:44:25.385Z,7.50
2023-03-11T12:46:58.008Z,7.70
2023-03-11T12:49:36.330Z,7.80
2023-03-11T12:52:09.151Z,7.80
2023-03-11T12:54:47.241Z,7.90
2023-03-11T12:57:17.209Z,7.90
2023-03-11T13:00:23.230Z,7.90
2023-03-11T13:03:30.083Z,8.00
2023-03-11T13:06:20.197Z,8.10
2023-03-11T13:08:54.678Z,8.20
2023-03-11T13:11:29.653Z,8.20
2023-03-11T13:14:16.195Z,8.30
2023-03-11T13:16:44.445Z,8.30
2023-03-11T13:19:26.720Z,8.30
2023-03-11T13:21:55.386Z,8.40
2023-03-11T13:24:22.406Z,8.40
2023-03-11T13:26:59.313Z,8.40
2023-03-11T13:29:45.113Z,8.50
2023-03-11T13:32:49.046Z,8.70
2023-03-11T13:35:52.461Z,8.90
2023-03-11T13:38:34.597Z,9.00
2023-03-11T13:41:03.243Z,9.10
2023-03-11T13:43:30.396Z,9.30
2023-03-11T13:46:08.078Z,9.30
2023-03-11T13:48:41.942Z,9.10
2023-03-11T13:51:17.486Z,9.00
2023-03-11T13:53:56.028Z,9.00
2023-03-11T13:56:27.835Z,9.00
2023-03-11T13:59:14.844Z,9.00
2023-03-11T14:01:49.058Z,8.90
2023-03-11T14:04:20.920Z,8.90
2023-03-11T14:06:48.627Z,8.90
2023-03-11T14:09:20.274Z,8.80
2023-03-11T14:11:48.786Z,8.90
2023-03-11T14:14:33.491Z,9.10
2023-03-11T14:17:01.532Z,9.20
2023-03-11T14:19:31.337Z,9.40
2023-03-11T14:21:58.421Z,9.50
2023-03-11T14:24:31.756Z,9.20
2023-03-11T14:27:01.310Z,9.20
2023-03-11T14:29:36.522Z,9.30
2023-03-11T14:32:25.688Z,9.40
2023-03-11T14:34:52.499Z,9.20
2023-03-11T14:37:45.493Z,9.20
2023-03-11T14:40:21.536Z,9.10
2023-03-11T14:42:53.698Z,9.10
2023-03-11T14:45:24.341Z,9.00
2023-03-11T14:48:08.160Z,9.10
2023-03-11T14:50:35.536Z,9.20
2023-03-11T14:53:06.909Z,9.00
2023-03-11T14:55:40.220Z,9.00
2023-03-11T14:58:15.485Z,9.10
2023-03-11T15:01:09.183Z,9.20
2023-03-11T15:03:45.484Z,8.90
2023-03-11T15:06:22.939Z,8.70
2023-03-11T15:08:59.884Z,8.30
2023-03-11T15:11:28.461Z,8.20
2023-03-11T15:14:15.994Z,8.10
2023-03-11T15:16:42.836Z,8.00
2023-03-11T15:19:27.935Z,7.90
2023-03-11T15:21:58.502Z,7.80
2023-03-11T15:24:34.664Z,7.80
2023-03-11T15:27:29.107Z,7.70
2023-03-11T15:29:56.864Z,7.60
2023-03-11T15:32:24.811Z,7.50
2023-03-11T15:35:14.113Z,7.40
2023-03-11T15:37:42.659Z,7.40
2023-03-11T15:40:30.042Z,7.40
2023-03-11T15:43:23.820Z,7.30
2023-03-11T15:45:54.140Z,7.20
2023-03-11T15:48:21.690Z,7.20
2023-03-11T15:50:53.844Z,7.20
2023-03-11T15:53:22.512Z,7.10
2023-03-11T15:55:49.826Z,7.10
2023-03-11T15:58:18.540Z,7.00
2023-03-11T16:00:55.875Z,6.90
2023-03-11T16:03:23.466Z,6.90
2023-03-11T16:05:50.403Z,6.80
2023-03-11T16:08:17.232Z,6.70
2023-03-11T16:10:44.211Z,6.70
2023-03-11T16:13:13.876Z,6.60
2023-03-11T16:15:42.136Z,6.60
2023-03-11T16:18:10.458Z,6.60
2023-03-11T16:20:50.622Z,6.60
2023-03-11T16:23:21.953Z,6.50
2023-03-11T16:25:49.927Z,6.50
2023-03-11T16:28:17.728Z,6.50
2023-03-11T16:30:44.682Z,6.40
2023-03-11T16:33:11.540Z,6.30
2023-03-11T16:35:38.446Z,6.20
2023-03-11T16:38:06.642Z,6.20
2023-03-11T16:40:33.743Z,6.10
2023-03-11T16:43:03.638Z,6.10
2023-03-11T16:45:30.913Z,6.10
2023-03-11T16:47:57.966Z,6.00
2023-03-11T16:50:24.885Z,5.90
2023-03-11T16:52:52.775Z,5.90
2023-03-11T16:55:19.840Z,5.80
2023-03-11T16:57:46.694Z,5.70
2023-03-11T17:00:15.237Z,5.70
2023-03-11T17:02:42.257Z,5.60
2023-03-11T17:05:09.808Z,5.60
2023-03-11T17:07:39.556Z,5.50
2023-03-11T17:10:08.375Z,5.50
2023-03-11T17:12:36.292Z,5.40
2023-03-11T17:15:06.317Z,5.30
2023-03-11T17:17:33.134Z,5.30
2023-03-11T17:19:59.886Z,5.20
2023-03-11T17:22:26.736Z,5.10
2023-03-11T17:24:53.734Z,5.00
2023-03-11T17:27:20.645Z,5.00
2023-03-11T17:29:47.419Z,4.90
2023-03-11T17:32:17.484Z,4.80
2023-03-11T17:34:44.840Z,4.70
2023-03-11T17:37:12.002Z,4.70
2023-03-11T17:39:38.813Z,4.50
2023-03-11T17:42:05.810Z,4.50
2023-03-11T17:44:48.589Z,4.30
2023-03-11T17:47:19.405Z,4.20
2023-03-11T17:49:46.316Z,4.00
2023-03-11T17:52:13.158Z,3.80
2023-03-11T17:54:39.945Z,3.60
2023-03-11T17:57:06.719Z,3.50
2023-03-11T17:59:33.530Z,3.40
2023-03-11T18:02:00.398Z,3.30
2023-03-11T18:04:27.593Z,3.20
2023-03-11T18:06:55.191Z,3.10
2023-03-11T18:09:22.484Z,3.00
2023-03-11T18:11:49.213Z,2.90
2023-03-11T18:14:16.033Z,2.80
2023-03-11T18:16:42.864Z,2.60
2023-03-11T18:19:09.696Z,2.60
2023-03-11T18:21:36.465Z,2.50
2023-03-11T18:24:03.511Z,2.40
2023-03-11T18:26:30.883Z,2.30
2023-03-11T18:28:59.439Z,2.30
2023-03-11T18:31:27.457Z,2.30
2023-03-11T18:33:57.043Z,2.20
2023-03-11T18:36:42.108Z,2.20
2023-03-11T18:39:12.528Z,2.10
2023-03-11T18:41:39.707Z,2.00
2023-03-11T18:44:07.000Z,2.00
2023-03-11T18:46:33.890Z,1.90
2023-03-11T18:49:02.592Z,1.90
2023-03-11T18:51:31.499Z,1.80
2023-03-11T18:53:59.262Z,1.70
2023-03-11T18:56:26.578Z,1.70
2023-03-11T18:58:55.234Z,1.60
2023-03-11T19:01:22.071Z,1.50
2023-03-11T19:03:51.733Z,1.50
2023-03-11T19:06:18.897Z,1.40
2023-03-11T19:08:45.714Z,1.30
2023-03-11T19:11:18.941Z,1.30
2023-03-11T19:13:47.522Z,1.20
2023-03-11T19:16:17.944Z,1.20
2023-03-11T19:18:45.655Z,1.10
2023-03-11T19:21:13.678Z,1.00
2023-03-11T19:23:40.489Z,0.90
2023-03-11T19:26:07.864Z,0.80
2023-03-11T19:28:35.614Z,0.80
2023-03-11T19:31:02.759Z,0.70
2023-03-11T19:33:29.591Z,0.60
2023-03-11T19:36:01.440Z,0.60
2023-03-11T19:38:29.133Z,0.60
2023-03-11T19:41:04.144Z,0.50
2023-03-11T19:43:31.238Z,0.50
2023-03-11T19:45:58.047Z,0.40
2023-03-11T19:48:24.943Z,0.40
2023-03-11T19:50:52.171Z,0.40
2023-03-11T19:53:19.365Z,0.40
2023-03-11T19:55:48.180Z,0.30
2023-03-11T19:58:15.169Z,0.30
2023-03-11T20:00:43.314Z,0.30
2023-03-11T20:03:11.245Z,0.20
2023-03-11T20:05:40.246Z,0.20
2023-03-11T20:08:08.556Z,0.10
2023-03-11T20:10:39.836Z,0.10
2023-03-11T20:13:06.946Z,0.00
2023-03-11T20:15:34.371Z,0.00
2023-03-11T20:18:02.270Z,0.00
2023-03-11T20:20:30.193Z,0.00
2023-03-11T20:22:57.573Z,-0.10
2023-03-11T20:25:25.233Z,-0.10
2023-03-11T20:27:53.088Z,-0.10
2023-03-11T20:30:20.204Z,-0.10
2023-03-11T20:32:47.777Z,-0.10
2023-03-11T20:35:15.247Z,-0.10
2023-03-11T20:37:45.463Z,-0.10
2023-03-11T20:40:14.377Z,-0.10
2023-03-11T20:42:43.136Z,-0.10
2023-03-11T20:45:11.129Z,0.00
2023-03-11T20:47:38.030Z,0.00
2023-03-11T20:50:05.684Z,0.10
2023-03-11T20:52:35.603Z,0.20
2023-03-11T20:55:03.525Z,0.40
2023-03-11T20:57:30.760Z,0.50
2023-03-11T20:59:57.651Z,0.60
2023-03-11T21:02:24.610Z,0.60
2023-03-11T21:04:51.532Z,0.60
2023-03-11T21:07:18.371Z,0.70
2023-03-11T21:09:45.276Z,0.70
2023-03-11T21:12:12.065Z,0.80
2023-03-11T21:14:39.034Z,0.80
2023-03-11T21:17:05.872Z,0.80
2023-03-11T21:19:32.815Z,0.80
2023-03-11T21:21:59.782Z,0.80
2023-03-11T21:24:26.614Z,0.80
2023-03-11T21:26:53.450Z,0.80
2023-03-11T21:29:20.359Z,0.70
2023-03-11T21:31:47.225Z,0.80
2023-03-11T21:34:14.133Z,0.80
2023-03-11T21:36:41.250Z,0.80
2023-03-11T21:39:08.124Z,0.80
2023-03-11T21:41:35.075Z,0.80
2023-03-11T21:44:01.918Z,0.70
2023-03-11T21:46:31.157Z,0.70
2023-03-11T21:48:59.008Z,0.80
2023-03-11T21:51:26.229Z,0.80
2023-03-11T21:53:53.131Z,0.80
2023-03-11T21:56:20.021Z,0.70
2023-03-11T21:58:47.426Z,0.70
2023-03-11T22:01:14.506Z,0.70
2023-03-11T22:03:42.024Z,0.60
2023-03-11T22:06:09.873Z,0.60
2023-03-11T22:08:36.843Z,0.60
2023-03-11T22:11:07.565Z,0.60
2023-03-11T22:13:34.519Z,0.60
2023-03-11T22:16:06.240Z,0.60
2023-03-11T22:18:33.293Z,0.50
2023-03-11T22:21:00.885Z,0.60
2023-03-11T22:23:28.225Z,0.70
2023-03-11T22:25:56.326Z,0.80
2023-03-11T22:28:23.394Z,0.80
2023-03-11T22:30:50.215Z,0.80
2023-03-11T22:33:17.072Z,0.80
2023-03-11T22:35:52.906Z,0.90
2023-03-11T22:38:20.068Z,0.90
2023-03-11T22:40:47.207Z,0.80
2023-03-11T22:43:14.178Z,0.80
2023-03-11T22:45:41.026Z,0.80
2023-03-11T22:48:08.017Z,0.80
2023-03-11T22:50:35.034Z,0.80
2023-03-11T22:53:01.810Z,0.80
2023-03-11T22:55:28.640Z,0.80
2023-03-11T22:57:55.392Z,0.70
2023-03-11T23:00:23.194Z,0.70
2023-03-11T23:02:54.527Z,0.70
2023-03-11T23:05:22.480Z,0.70
2023-03-11T23:07:49.492Z,0.80
2023-03-11T23:10:20.810Z,0.80
2023-03-11T23:12:48.205Z,0.80
2023-03-11T23:15:17.890Z,0.90
2023-03-11T23:17:44.913Z,1.00
2023-03-11T23:20:14.118Z,1.00
2023-03-11T23:22:42.610Z,1.00
2023-03-11T23:25:13.328Z,1.00
2023-03-11T23:27:42.444Z,1.10
2023-03-11T23:30:12.801Z,1.10
2023-03-11T23:32:39.634Z,1.10
2023-03-11T23:35:06.947Z,1.10
2023-03-11T23:37:33.823Z,1.10
2023-03-11T23:40:00.568Z,1.20
2023-03-11T23:42:27.358Z,1.20
2023-03-11T23:44:54.302Z,1.20
2023-03-11T23:47:21.197Z,1.30
2023-03-11T23:49:47.930Z,1.30
2023-03-11T23:52:14.692Z,1.30
2023-03-11T23:54:41.444Z,1.30
2023-03-11T23:57:08.379Z,1.30
2023-03-11T23:59:35.258Z,1.30
